Time;durP1;ratioP1;P1;durP2;ratioP2;P2;SDS_P1;SDS_P2;PMS_P1;PMS_P2;Temp;Humidity;BMP_temperature;BMP_pressure;BME280_temperature;BME280_humidity;BME280_pressure;Samples;Min_cycle;Max_cycle;Signal;HPM_P1;HPM_P2
2020/12/14 00:02:38;;;;;;;24.43;13.50;;;;;;;2.93;70.00;99057.32;251141;1134;114587;-88
2020/12/14 00:07:40;;;;;;;26.07;14.27;;;;;;;2.99;70.44;99062.39;250455;1134;114901;-88
2020/12/14 00:12:43;;;;;;;23.53;13.70;;;;;;;2.97;70.05;99066.83;249433;1134;114873;-83
2020/12/14 00:17:45;;;;;;;24.67;14.10;;;;;;;2.94;69.92;99068.69;250658;1134;114781;-89
2020/12/14 00:22:49;;;;;;;23.37;13.20;;;;;;;2.93;70.01;99067.83;249292;1134;114852;-88
2020/12/14 00:27:51;;;;;;;25.93;15.00;;;;;;;2.94;69.61;99071.32;249750;1134;114991;-89
2020/12/14 00:32:53;;;;;;;22.33;13.00;;;;;;;2.90;70.10;99069.70;249137;1134;115077;-88
2020/12/14 00:37:56;;;;;;;27.17;14.25;;;;;;;2.88;70.02;99077.61;250424;1134;115246;-82
2020/12/14 00:42:58;;;;;;;24.17;13.70;;;;;;;2.92;69.66;99083.63;251476;1134;114811;-83
2020/12/14 00:48:01;;;;;;;24.70;14.47;;;;;;;3.00;70.14;99073.77;251728;1134;116061;-83
2020/12/14 00:53:04;;;;;;;27.77;15.10;;;;;;;3.03;70.02;99085.05;251891;1134;115385;-77
2020/12/14 00:58:07;;;;;;;25.83;14.77;;;;;;;3.02;70.00;99090.33;251384;1134;114824;-76
2020/12/14 01:03:12;;;;;;;24.92;14.63;;;;;;;3.01;69.72;99088.62;250100;1134;116404;-76
2020/12/14 01:08:16;;;;;;;21.20;13.10;;;;;;;2.98;69.71;99088.71;251740;1135;115246;-75
2020/12/14 01:13:20;;;;;;;28.53;17.23;;;;;;;2.99;69.68;99087.80;251654;1133;115210;-78
2020/12/14 01:18:24;;;;;;;23.90;13.63;;;;;;;3.00;70.06;99094.80;251932;1134;114678;-77
2020/12/14 01:23:27;;;;;;;26.67;14.07;;;;;;;3.04;69.68;99092.02;251225;1134;114503;-78
2020/12/14 01:28:30;;;;;;;25.90;15.33;;;;;;;3.07;69.76;99097.19;251643;1134;114623;-77
2020/12/14 01:33:33;;;;;;;26.50;14.95;;;;;;;3.07;69.76;99091.92;251551;1134;114586;-77
2020/12/14 01:38:37;;;;;;;24.82;15.15;;;;;;;3.10;69.78;99085.72;251958;1135;114454;-77
2020/12/14 01:43:40;;;;;;;26.93;15.20;;;;;;;3.11;69.63;99089.20;250702;1134;114437;-80
2020/12/14 01:48:42;;;;;;;24.55;14.85;;;;;;;3.14;69.32;99089.11;251682;1135;114939;-80
2020/12/14 01:53:46;;;;;;;28.75;16.30;;;;;;;3.14;69.58;99100.48;251702;1133;114313;-80
2020/12/14 01:58:50;;;;;;;26.97;16.37;;;;;;;3.17;69.91;99094.27;251768;1135;114962;-79
2020/12/14 02:03:52;;;;;;;27.60;16.97;;;;;;;3.21;69.92;99096.75;251891;1135;114847;-78
2020/12/14 02:08:55;;;;;;;33.97;17.40;;;;;;;3.25;69.50;99095.73;251825;1134;114577;-80
2020/12/14 02:13:57;;;;;;;30.50;16.47;;;;;;;3.29;69.82;99101.77;251760;1134;114738;-80
2020/12/14 02:19:00;;;;;;;27.17;15.70;;;;;;;3.26;69.56;99105.38;251657;1135;115165;-79
2020/12/14 02:24:17;;;;;;;27.60;16.17;;;;;;;3.25;69.34;99095.73;251806;1136;116422;-79
2020/12/14 02:29:20;;;;;;;27.05;15.70;;;;;;;3.22;69.73;99084.45;250794;1134;114928;-79
2020/12/14 02:34:22;;;;;;;27.97;15.13;;;;;;;3.19;69.44;99097.70;251970;1134;114753;-79
2020/12/14 02:39:25;;;;;;;28.97;15.37;;;;;;;3.16;69.23;99098.68;251987;1133;115186;-79
2020/12/14 02:44:29;;;;;;;30.77;16.17;;;;;;;3.15;69.30;99101.34;251982;1134;115171;-80
2020/12/14 02:49:33;;;;;;;31.77;16.83;;;;;;;3.12;69.03;99104.06;251916;1134;115147;-80
2020/12/14 02:54:38;;;;;;;27.27;15.77;;;;;;;3.10;69.07;99109.37;251732;1135;114894;-78
2020/12/14 02:59:41;;;;;;;30.23;16.80;;;;;;;3.11;69.65;99115.49;251701;1134;114762;-80
2020/12/14 03:04:43;;;;;;;28.47;15.73;;;;;;;3.18;69.35;99122.28;251648;1135;114844;-81
2020/12/14 03:09:46;;;;;;;23.18;14.03;;;;;;;3.15;69.32;99117.11;252060;1135;115826;-80
2020/12/14 03:14:48;;;;;;;24.87;13.73;;;;;;;3.16;69.08;99116.20;251705;1134;114713;-80
2020/12/14 03:19:51;;;;;;;25.87;14.30;;;;;;;3.14;69.11;99120.66;251990;1134;115706;-80
2020/12/14 03:24:54;;;;;;;25.50;13.97;;;;;;;3.14;69.21;99118.03;251568;1134;115158;-78
2020/12/14 03:29:56;;;;;;;25.37;14.00;;;;;;;3.19;69.38;99126.63;251970;1134;114863;-78
2020/12/14 03:34:58;;;;;;;25.60;14.10;;;;;;;3.17;69.21;99129.31;251737;1134;115355;-78
2020/12/14 03:40:00;;;;;;;27.83;14.33;;;;;;;3.15;69.05;99131.12;251478;1134;114699;-81
2020/12/14 03:45:03;;;;;;;24.40;13.75;;;;;;;3.16;69.39;99130.23;251958;1134;114758;-79
2020/12/14 03:50:06;;;;;;;20.13;12.73;;;;;;;3.15;68.73;99141.63;251793;1134;115098;-80
2020/12/14 03:55:08;;;;;;;26.33;13.17;;;;;;;3.16;69.42;99145.13;249239;1134;115003;-81
2020/12/14 04:00:11;;;;;;;25.40;12.97;;;;;;;3.19;69.37;99131.88;251247;1135;115017;-78
2020/12/14 04:05:15;;;;;;;24.72;13.98;;;;;;;3.25;69.11;99139.59;251927;1133;114995;-79
2020/12/14 04:10:17;;;;;;;23.62;12.75;;;;;;;3.27;69.39;99146.53;251674;1134;115316;-80
2020/12/14 04:15:20;;;;;;;25.60;13.77;;;;;;;3.32;68.99;99147.23;251903;1133;115141;-79
2020/12/14 04:20:23;;;;;;;26.42;14.47;;;;;;;3.37;69.24;99152.38;251764;1134;114776;-81
2020/12/14 04:25:25;;;;;;;26.60;12.85;;;;;;;3.40;68.93;99162.80;251892;1134;114993;-81
2020/12/14 04:30:27;;;;;;;23.67;13.23;;;;;;;3.40;69.26;99160.17;251551;1134;115362;-78
2020/12/14 04:35:30;;;;;;;26.30;14.67;;;;;;;3.37;69.47;99175.19;251818;1134;115296;-77
2020/12/14 04:40:32;;;;;;;25.77;14.10;;;;;;;3.35;69.15;99177.85;251763;1135;114868;-78
2020/12/14 04:45:35;;;;;;;26.33;15.05;;;;;;;3.32;68.60;99181.42;251710;1135;114943;-78
2020/12/14 04:50:39;;;;;;;22.87;13.58;;;;;;;3.39;69.11;99186.51;251826;1134;115017;-77
2020/12/14 04:55:41;;;;;;;26.30;15.13;;;;;;;3.43;68.81;99202.17;250397;1133;115248;-78
2020/12/14 05:00:43;;;;;;;26.43;14.77;;;;;;;3.43;68.97;99198.66;250828;1134;115129;-79
2020/12/14 05:05:54;;;;;;;28.17;15.97;;;;;;;3.42;68.77;99204.83;251697;1134;115241;-78
2020/12/14 05:10:58;;;;;;;26.43;16.50;;;;;;;3.41;69.02;99209.23;250556;1134;115660;-78
2020/12/14 05:16:33;;;;;;;25.68;15.70;;;;;;;3.39;68.71;99226.82;250516;1133;116477;-79
2020/12/14 05:21:58;;;;;;;29.70;17.03;;;;;;;3.38;69.12;99230.38;251269;1134;114581;-80
2020/12/14 05:27:01;;;;;;;31.62;19.25;;;;;;;3.35;68.82;99233.09;249400;1134;114951;-81
2020/12/14 05:32:05;;;;;;;29.40;17.87;;;;;;;3.38;69.07;99240.03;251705;1134;115046;-81
2020/12/14 05:37:12;;;;;;;28.87;17.48;;;;;;;3.43;69.60;99244.27;251646;1133;114708;-79
2020/12/14 05:42:20;;;;;;;34.65;19.42;;;;;;;3.43;69.46;99241.63;251665;1135;114682;-83
2020/12/14 05:47:30;;;;;;;30.82;18.25;;;;;;;3.49;69.29;99251.09;251713;1134;114415;-81
2020/12/14 05:52:40;;;;;;;34.30;20.90;;;;;;;3.56;69.66;99242.10;251984;1135;115015;-81
2020/12/14 05:57:48;;;;;;;33.13;19.53;;;;;;;3.66;69.95;99261.97;251611;1134;114432;-81
2020/12/14 06:02:54;;;;;;;32.93;20.90;;;;;;;3.70;69.23;99255.72;251648;1135;115278;-81
2020/12/14 06:08:01;;;;;;;37.28;21.62;;;;;;;3.72;69.62;99255.66;251850;1134;114796;-82
2020/12/14 06:13:07;;;;;;;32.50;19.63;;;;;;;3.68;69.85;99265.42;251375;1134;116596;-81
2020/12/14 06:18:13;;;;;;;31.43;20.13;;;;;;;3.64;69.10;99289.26;251829;1134;114739;-81
2020/12/14 06:23:17;;;;;;;35.83;20.97;;;;;;;3.61;69.17;99294.61;251767;1134;115242;-82
2020/12/14 06:28:34;;;;;;;40.10;23.38;;;;;;;3.56;69.45;99311.37;251864;1134;115242;-81
2020/12/14 06:33:39;;;;;;;40.67;23.00;;;;;;;3.56;69.32;99308.73;251597;1135;114772;-80
2020/12/14 06:38:42;;;;;;;41.30;24.52;;;;;;;3.60;69.93;99313.91;250078;1133;115083;-80
2020/12/14 06:43:46;;;;;;;46.03;25.10;;;;;;;3.61;69.58;99305.14;251690;1135;114709;-79
2020/12/14 06:48:52;;;;;;;44.45;23.77;;;;;;;3.66;70.10;99308.48;251864;1136;114840;-78
2020/12/14 06:53:55;;;;;;;40.47;22.37;;;;;;;3.64;69.52;99310.31;251788;1135;115062;-79
2020/12/14 06:58:57;;;;;;;41.80;24.87;;;;;;;3.56;69.81;99319.27;250927;1135;114907;-81
2020/12/14 07:04:01;;;;;;;41.83;24.23;;;;;;;3.53;69.63;99314.12;251744;1135;114895;-83
2020/12/14 07:09:31;;;;;;;46.63;28.30;;;;;;;3.57;69.79;99309.63;251841;1134;114800;-82
2020/12/14 07:14:43;;;;;;;46.33;25.50;;;;;;;3.67;70.26;99310.19;251943;1134;114664;-82
2020/12/14 07:19:46;;;;;;;48.20;26.43;;;;;;;3.73;70.12;99310.88;251776;1134;114654;-82
2020/12/14 07:24:59;;;;;;;47.73;27.35;;;;;;;3.79;70.04;99308.06;251441;1135;114728;-82
2020/12/14 07:30:06;;;;;;;46.37;27.00;;;;;;;3.90;70.22;99320.89;251904;1134;114697;-82
2020/12/14 07:35:09;;;;;;;42.98;25.37;;;;;;;3.91;70.18;99330.54;251837;1134;114850;-81
2020/12/14 07:40:12;;;;;;;50.37;26.63;;;;;;;3.91;69.60;99325.27;251804;1133;115446;-82
2020/12/14 07:45:19;;;;;;;41.65;24.80;;;;;;;3.92;70.25;99326.13;251636;1134;114804;-83
2020/12/14 07:50:24;;;;;;;38.78;24.72;;;;;;;3.94;69.87;99326.92;251919;1135;114822;-82
2020/12/14 07:55:26;;;;;;;48.28;26.10;;;;;;;3.94;70.34;99330.45;251702;1135;114672;-82
2020/12/14 08:00:29;;;;;;;52.73;28.87;;;;;;;3.94;70.07;99340.09;251355;1134;114724;-78
2020/12/14 08:05:31;;;;;;;52.67;29.77;;;;;;;3.98;70.21;99333.85;251828;1135;114947;-77
2020/12/14 08:10:35;;;;;;;61.93;32.13;;;;;;;4.00;69.66;99343.41;251619;1135;115192;-80
2020/12/14 08:15:39;;;;;;;52.27;30.90;;;;;;;4.03;70.16;99352.98;251801;1133;115346;-79
2020/12/14 08:20:42;;;;;;;55.33;30.50;;;;;;;4.11;69.75;99348.38;251966;1134;114788;-80
2020/12/14 08:25:49;;;;;;;51.80;30.27;;;;;;;4.08;70.46;99351.09;251982;1135;114624;-79
2020/12/14 08:30:52;;;;;;;56.92;31.70;;;;;;;4.03;69.82;99350.35;251573;1134;115018;-79
2020/12/14 08:35:55;;;;;;;55.47;30.17;;;;;;;3.99;69.68;99356.62;251956;1134;114852;-79
2020/12/14 08:41:02;;;;;;;53.25;31.65;;;;;;;4.00;70.65;99356.57;251715;1135;114742;-79
2020/12/14 08:46:14;;;;;;;53.67;31.27;;;;;;;3.99;69.62;99357.48;251565;1135;114681;-80
2020/12/14 08:51:35;;;;;;;64.07;34.63;;;;;;;4.05;70.79;99361.72;251381;1135;114788;-78
2020/12/14 08:56:38;;;;;;;61.90;34.13;;;;;;;4.10;70.01;99346.63;251724;1135;115091;-80
2020/12/14 09:01:57;;;;;;;63.87;35.63;;;;;;;4.17;70.45;99348.16;251597;1135;114822;-77
2020/12/14 09:07:00;;;;;;;70.47;36.42;;;;;;;4.24;70.12;99343.55;251576;1133;114860;-78
2020/12/14 09:12:09;;;;;;;64.40;35.03;;;;;;;4.26;69.72;99333.84;251124;1135;114910;-79
2020/12/14 09:17:14;;;;;;;66.50;35.55;;;;;;;4.29;69.78;99338.16;251707;1135;115181;-79
2020/12/14 09:22:21;;;;;;;60.07;34.63;;;;;;;4.30;69.90;99337.24;251732;1134;114672;-79
2020/12/14 09:27:24;;;;;;;63.23;34.40;;;;;;;4.29;70.63;99338.16;251804;1135;114395;-79
2020/12/14 09:32:30;;;;;;;60.63;34.15;;;;;;;4.31;70.40;99339.81;251435;1134;114926;-78
2020/12/14 09:37:32;;;;;;;67.63;34.03;;;;;;;4.30;69.90;99334.61;251922;1135;114685;-81
2020/12/14 09:42:35;;;;;;;63.33;36.33;;;;;;;4.31;70.45;99336.33;251935;1134;114851;-81
2020/12/14 09:47:37;;;;;;;60.17;33.67;;;;;;;4.36;70.45;99326.52;251817;1134;114928;-81
2020/12/14 09:52:40;;;;;;;57.83;34.17;;;;;;;4.42;69.67;99315.78;251685;1133;114995;-81
2020/12/14 09:57:42;;;;;;;61.88;34.40;;;;;;;4.49;70.59;99314.67;251842;1135;114911;-81
2020/12/14 10:02:44;;;;;;;59.20;33.13;;;;;;;4.50;70.54;99311.97;251814;1135;114802;-80
2020/12/14 10:07:46;;;;;;;61.80;33.73;;;;;;;4.53;70.67;99304.89;251644;1134;114876;-79
2020/12/14 10:12:49;;;;;;;66.23;34.23;;;;;;;4.54;70.54;99306.59;251908;1134;114933;-79
2020/12/14 10:17:51;;;;;;;64.23;34.43;;;;;;;4.51;69.61;99318.95;251754;1133;114810;-79
2020/12/14 10:22:55;;;;;;;65.22;35.48;;;;;;;4.50;69.97;99314.61;251716;1134;114568;-79
2020/12/14 10:27:57;;;;;;;55.93;31.93;;;;;;;4.50;69.95;99311.97;251267;1133;116389;-80
2020/12/14 10:33:00;;;;;;;61.50;32.53;;;;;;;4.53;70.61;99307.52;251791;1134;115198;-80
2020/12/14 10:38:04;;;;;;;50.73;29.17;;;;;;;4.60;70.09;99303.77;251838;1135;114817;-79
2020/12/14 10:43:06;;;;;;;59.30;32.43;;;;;;;4.68;70.71;99306.99;251943;1135;115415;-81
2020/12/14 10:48:08;;;;;;;49.33;27.90;;;;;;;4.74;70.00;99309.43;251909;1135;115298;-80
2020/12/14 10:53:11;;;;;;;49.07;27.67;;;;;;;4.78;69.68;99302.27;251761;1134;114759;-82
2020/12/14 10:58:14;;;;;;;46.23;24.45;;;;;;;4.82;70.35;99309.16;251746;1135;114701;-83
2020/12/14 11:03:16;;;;;;;39.73;22.23;;;;;;;4.83;69.58;99319.67;249958;1134;114839;-82
2020/12/14 11:08:19;;;;;;;40.50;22.40;;;;;;;4.84;69.91;99316.11;251552;1135;115891;-82
2020/12/14 11:13:21;;;;;;;48.42;27.65;;;;;;;4.81;69.16;99302.17;251577;1135;114986;-82
2020/12/14 11:18:23;;;;;;;43.93;25.00;;;;;;;4.80;69.90;99306.59;251934;1133;114755;-82
2020/12/14 11:23:26;;;;;;;43.23;24.85;;;;;;;4.80;70.07;99298.68;251523;1135;114797;-80
2020/12/14 11:28:30;;;;;;;48.23;27.27;;;;;;;4.81;69.92;99288.98;251424;1135;114911;-79
2020/12/14 11:33:35;;;;;;;41.47;22.10;;;;;;;4.87;68.98;99291.42;251455;1135;114754;-79
2020/12/14 11:38:38;;;;;;;42.83;23.02;;;;;;;4.93;70.58;99292.07;251607;1134;114924;-82
2020/12/14 11:43:41;;;;;;;37.17;21.60;;;;;;;5.06;69.13;99296.89;251670;1134;114698;-82
2020/12/14 11:48:43;;;;;;;31.33;18.67;;;;;;;5.08;69.91;99295.93;251408;1134;114394;-79
2020/12/14 11:53:47;;;;;;;23.20;15.10;;;;;;;5.05;69.22;99284.63;251802;1134;114995;-82
2020/12/14 11:58:49;;;;;;;31.62;17.30;;;;;;;4.99;69.36;99301.52;251883;1135;114724;-79
2020/12/14 12:03:52;;;;;;;24.90;14.30;;;;;;;5.01;69.41;99302.34;251806;1134;114780;-79
2020/12/14 12:08:55;;;;;;;33.67;18.97;;;;;;;4.97;68.34;99296.31;251904;1135;114657;-79
2020/12/14 12:13:57;;;;;;;31.47;19.30;;;;;;;4.97;69.30;99280.48;251699;1135;114622;-79
2020/12/14 12:19:00;;;;;;;27.47;16.80;;;;;;;4.96;68.69;99270.87;251743;1134;114656;-79
2020/12/14 12:24:04;;;;;;;27.22;15.98;;;;;;;4.93;69.24;99278.88;251752;1134;114811;-80
2020/12/14 12:29:06;;;;;;;25.47;14.40;;;;;;;4.93;68.97;99281.52;251789;1134;114692;-79
2020/12/14 12:34:08;;;;;;;26.90;16.33;;;;;;;4.96;68.91;99286.69;251629;1135;115141;-80
2020/12/14 12:39:11;;;;;;;27.40;17.40;;;;;;;4.99;69.07;99290.97;251893;1133;114785;-78
2020/12/14 12:44:14;;;;;;;31.27;19.23;;;;;;;5.03;69.19;99291.72;251749;1133;114878;-80
2020/12/14 12:49:16;;;;;;;34.90;20.20;;;;;;;5.10;68.24;99295.89;251791;1135;114934;-79
2020/12/14 12:54:19;;;;;;;23.35;14.25;;;;;;;5.11;68.67;99300.25;251707;1135;114826;-80
2020/12/14 12:59:22;;;;;;;23.50;14.93;;;;;;;5.01;67.69;99294.42;251740;1134;115041;-78
2020/12/14 13:04:24;;;;;;;27.60;16.27;;;;;;;4.98;68.05;99295.39;251614;1135;114785;-83
2020/12/14 13:09:27;;;;;;;22.50;14.27;;;;;;;5.00;68.77;99310.32;251326;1134;115000;-80
2020/12/14 13:14:29;;;;;;;25.43;14.93;;;;;;;4.97;67.85;99309.50;251767;1135;115500;-79
2020/12/14 13:19:32;;;;;;;25.92;15.40;;;;;;;4.93;68.75;99312.31;251741;1133;114640;-79
2020/12/14 13:24:34;;;;;;;22.53;13.80;;;;;;;4.97;68.35;99313.92;251697;1134;114833;-80
2020/12/14 13:29:36;;;;;;;25.57;15.03;;;;;;;4.98;69.17;99315.63;251747;1135;114878;-79
2020/12/14 13:34:41;;;;;;;26.07;14.30;;;;;;;5.00;67.52;99305.91;251808;1134;115529;-82
2020/12/14 13:39:43;;;;;;;33.23;16.75;;;;;;;4.98;68.21;99311.22;250942;1135;115336;-81
2020/12/14 13:44:46;;;;;;;23.92;15.48;;;;;;;5.00;68.66;99318.23;251000;1135;114946;-81
2020/12/14 13:49:49;;;;;;;23.40;14.83;;;;;;;4.90;67.83;99323.81;251848;1134;114963;-81
2020/12/14 13:54:52;;;;;;;27.13;16.23;;;;;;;4.85;68.58;99325.73;251914;1134;115177;-81
2020/12/14 14:00:05;;;;;;;26.30;14.73;;;;;;;4.92;68.43;99321.97;251790;1135;114473;-81
2020/12/14 14:05:08;;;;;;;26.10;15.83;;;;;;;4.90;67.63;99329.09;251955;1134;114696;-79
2020/12/14 14:10:10;;;;;;;24.90;15.30;;;;;;;4.85;67.36;99323.09;251887;1135;114676;-80
2020/12/14 14:15:15;;;;;;;30.13;17.70;;;;;;;4.78;68.18;99326.00;251445;1135;115396;-81
2020/12/14 14:20:24;;;;;;;31.50;18.43;;;;;;;4.66;68.49;99335.20;251404;1134;114490;-81
2020/12/14 14:25:27;;;;;;;30.63;17.17;;;;;;;4.65;68.58;99329.07;251722;1134;114963;-80
2020/12/14 14:30:30;;;;;;;25.73;16.07;;;;;;;4.70;67.66;99335.03;251481;1134;114914;-80
2020/12/14 14:35:33;;;;;;;36.08;21.12;;;;;;;4.62;68.40;99350.26;251927;1135;114777;-80
2020/12/14 14:40:36;;;;;;;33.13;19.63;;;;;;;4.62;67.72;99344.09;251805;1135;114535;-80
2020/12/14 14:45:40;;;;;;;26.45;16.50;;;;;;;4.60;68.59;99345.94;251716;1133;114836;-84
2020/12/14 14:50:47;;;;;;;29.72;17.57;;;;;;;4.57;67.40;99346.03;251815;1135;114738;-79
2020/12/14 14:55:54;;;;;;;27.27;16.77;;;;;;;4.45;67.78;99345.53;251730;1135;115266;-79
2020/12/14 15:00:56;;;;;;;30.00;18.00;;;;;;;4.31;68.33;99344.23;251890;1135;114995;-78
2020/12/14 15:05:58;;;;;;;29.03;17.00;;;;;;;4.29;67.52;99343.44;250375;1134;114747;-82
2020/12/14 15:11:01;;;;;;;25.55;15.58;;;;;;;4.21;68.10;99354.19;251746;1134;114804;-82
2020/12/14 15:16:03;;;;;;;29.30;16.90;;;;;;;4.19;68.47;99350.76;251883;1135;114732;-81
2020/12/14 15:21:08;;;;;;;25.53;16.40;;;;;;;4.25;67.79;99353.20;251752;1134;114612;-78
2020/12/14 15:26:12;;;;;;;24.25;15.25;;;;;;;4.32;68.44;99349.47;251754;1135;115635;-81
2020/12/14 15:31:15;;;;;;;22.42;14.50;;;;;;;4.33;68.04;99353.81;251889;1134;114784;-81
2020/12/14 15:36:20;;;;;;;23.33;14.60;;;;;;;4.37;68.00;99352.80;251704;1134;115197;-83
2020/12/14 15:41:26;;;;;;;22.53;14.50;;;;;;;4.37;68.55;99354.58;251838;1134;114781;-82
2020/12/14 15:46:30;;;;;;;23.00;14.63;;;;;;;4.34;67.57;99360.80;250459;1134;114419;-81
2020/12/14 15:51:33;;;;;;;24.55;13.68;;;;;;;4.36;67.85;99356.36;251645;1134;115881;-83
2020/12/14 15:56:49;;;;;;;23.33;14.13;;;;;;;4.30;68.29;99356.55;251806;1135;115238;-80
2020/12/14 16:01:54;;;;;;;21.30;12.53;;;;;;;4.24;67.61;99359.36;251683;1135;115832;-80
2020/12/14 16:06:57;;;;;;;23.40;13.63;;;;;;;4.17;67.38;99368.37;251779;1134;116085;-80
2020/12/14 16:12:00;;;;;;;26.33;14.77;;;;;;;4.16;67.49;99369.28;251714;1134;114748;-80
2020/12/14 16:17:03;;;;;;;22.00;13.15;;;;;;;4.15;67.32;99370.20;252039;1134;114810;-80
2020/12/14 16:22:06;;;;;;;25.30;15.50;;;;;;;4.16;67.87;99374.55;251845;1135;115275;-81
2020/12/14 16:27:09;;;;;;;24.12;14.35;;;;;;;4.23;67.63;99381.36;251723;1134;114442;-80
2020/12/14 16:32:11;;;;;;;27.20;16.43;;;;;;;4.26;68.42;99376.85;251747;1134;114938;-79
2020/12/14 16:37:14;;;;;;;27.23;16.17;;;;;;;4.32;67.49;99377.59;251652;1134;115126;-79
2020/12/14 16:42:16;;;;;;;27.02;16.15;;;;;;;4.33;67.24;99387.20;251883;1134;114715;-80
2020/12/14 16:47:20;;;;;;;29.23;17.83;;;;;;;4.26;68.00;99379.48;251929;1135;114700;-80
2020/12/14 16:52:22;;;;;;;27.83;16.80;;;;;;;4.23;67.77;99374.31;251956;1134;114748;-79
2020/12/14 16:57:24;;;;;;;29.00;17.93;;;;;;;4.21;67.63;99376.15;251173;1134;114575;-79
2020/12/14 17:02:28;;;;;;;30.50;18.20;;;;;;;4.17;67.80;99371.00;251952;1134;115688;-81
2020/12/14 17:07:34;;;;;;;33.30;19.30;;;;;;;4.10;68.10;99369.47;251595;1135;115400;-78
2020/12/14 17:12:47;;;;;;;31.87;20.17;;;;;;;4.10;67.21;99369.47;251567;1135;114829;-78
2020/12/14 17:17:50;;;;;;;33.93;19.30;;;;;;;4.14;68.30;99373.72;251636;1135;114740;-78
2020/12/14 17:22:53;;;;;;;37.80;21.00;;;;;;;4.19;67.78;99370.05;251774;1134;115134;-75
2020/12/14 17:27:56;;;;;;;39.37;22.37;;;;;;;4.25;67.79;99374.28;251601;1134;115222;-74
2020/12/14 17:33:07;;;;;;;37.53;22.95;;;;;;;4.28;68.17;99366.28;250125;1134;114917;-74
2020/12/14 17:38:10;;;;;;;35.93;21.43;;;;;;;4.20;67.79;99374.41;250946;1134;114616;-77
2020/12/14 17:43:12;;;;;;;40.98;22.48;;;;;;;4.12;67.45;99370.30;252036;1133;114694;-73
2020/12/14 17:48:15;;;;;;;39.87;24.27;;;;;;;4.13;67.65;99372.02;251897;1134;115229;-74
2020/12/14 17:53:17;;;;;;;40.67;24.53;;;;;;;4.07;67.70;99377.45;250512;1134;115462;-78
2020/12/14 17:58:20;;;;;;;41.35;24.43;;;;;;;3.93;67.03;99381.36;251589;1133;114900;-77
2020/12/14 18:03:22;;;;;;;46.33;28.07;;;;;;;3.85;67.53;99382.52;251840;1134;115028;-78
2020/12/14 18:08:25;;;;;;;41.55;22.60;;;;;;;3.80;67.42;99390.52;251923;1134;114790;-78
2020/12/14 18:13:28;;;;;;;41.87;24.07;;;;;;;3.75;67.45;99388.03;251682;1135;116307;-78
2020/12/14 18:18:30;;;;;;;42.93;26.23;;;;;;;3.74;67.46;99388.95;251736;1135;114802;-78
2020/12/14 18:23:32;;;;;;;48.68;27.85;;;;;;;3.81;67.92;99376.47;252005;1135;114977;-77
2020/12/14 18:28:35;;;;;;;46.10;27.33;;;;;;;3.88;67.77;99372.75;251767;1134;114667;-78
2020/12/14 21:26:31;;;;;;;77.80;41.37;;;;;;;3.34;68.42;99333.95;251570;1134;115383;-81
2020/12/14 21:31:33;;;;;;;71.07;37.30;;;;;;;3.35;68.12;99332.19;251690;1133;115315;-81
2020/12/14 21:36:42;;;;;;;78.80;39.97;;;;;;;3.33;68.14;99337.50;251535;1133;115233;-78
2020/12/14 21:42:12;;;;;;;72.97;37.73;;;;;;;3.31;67.74;99341.92;251575;1134;115046;-82
2020/12/14 21:47:16;;;;;;;66.30;34.20;;;;;;;3.27;67.91;99340.30;251606;1134;115110;-81
2020/12/14 21:52:19;;;;;;;80.00;40.53;;;;;;;3.21;68.02;99341.31;251954;1134;114672;-82
2020/12/14 21:57:23;;;;;;;69.27;37.67;;;;;;;3.19;68.09;99343.11;251705;1135;114701;-80
2020/12/14 22:02:27;;;;;;;71.83;38.03;;;;;;;3.23;68.43;99343.92;251611;1135;115519;-82
2020/12/14 22:07:30;;;;;;;76.33;40.48;;;;;;;3.26;68.47;99341.17;250993;1134;114934;-81
2020/12/14 22:12:32;;;;;;;77.10;39.87;;;;;;;3.24;67.90;99346.49;251620;1134;115080;-81
2020/12/14 22:17:39;;;;;;;72.83;38.10;;;;;;;3.20;67.97;99346.63;251773;1134;114788;-81
2020/12/14 22:22:41;;;;;;;72.30;39.23;;;;;;;3.16;67.95;99350.22;251676;1134;114576;-81
2020/12/14 22:27:44;;;;;;;73.30;37.83;;;;;;;3.14;68.16;99347.65;251789;1134;114997;-81
2020/12/14 22:32:47;;;;;;;73.07;36.40;;;;;;;3.11;68.12;99341.61;251503;1133;114701;-81
2020/12/14 22:37:50;;;;;;;73.83;37.87;;;;;;;3.04;67.97;99340.91;251882;1134;114824;-81
2020/12/14 22:42:52;;;;;;;71.55;37.10;;;;;;;3.00;68.37;99352.41;251771;1135;114734;-81
2020/12/14 22:47:54;;;;;;;79.65;41.08;;;;;;;2.92;68.26;99355.25;251727;1134;114703;-81
2020/12/14 22:52:56;;;;;;;80.00;40.30;;;;;;;2.96;68.18;99359.52;251973;1134;114803;-81
2020/12/14 22:57:59;;;;;;;82.53;40.43;;;;;;;2.98;68.43;99360.33;251878;1133;115578;-78
2020/12/14 23:03:01;;;;;;;73.93;37.00;;;;;;;2.96;68.43;99363.92;251920;1134;114872;-80
2020/12/14 23:08:03;;;;;;;71.02;36.70;;;;;;;2.91;68.29;99363.16;252046;1133;114831;-81
2020/12/14 23:13:06;;;;;;;71.47;36.55;;;;;;;2.83;68.59;99369.48;251958;1134;114805;-81
2020/12/14 23:18:08;;;;;;;81.45;38.90;;;;;;;2.76;68.55;99373.16;251940;1135;114930;-77
2020/12/14 23:23:11;;;;;;;78.47;36.90;;;;;;;2.71;68.39;99368.91;251864;1135;114792;-78
2020/12/14 23:28:13;;;;;;;83.43;40.33;;;;;;;2.68;68.70;99367.22;251642;1134;114720;-75
2020/12/14 23:33:16;;;;;;;82.00;40.83;;;;;;;2.69;68.68;99365.48;251865;1134;115936;-79
2020/12/14 23:38:21;;;;;;;78.12;39.70;;;;;;;2.72;68.71;99368.03;251829;1135;115615;-79
2020/12/14 23:43:23;;;;;;;;;;;;;;;2.73;68.59;99375.86;251741;1135;114870;-79
2020/12/14 23:48:26;;;;;;;79.62;38.35;;;;;;;2.73;68.84;99364.50;251954;1134;102280;-79
2020/12/14 23:53:29;;;;;;;75.57;37.20;;;;;;;2.69;68.79;99360.23;251850;1133;114595;-77
2020/12/14 23:58:32;;;;;;;80.85;39.90;;;;;;;2.67;68.84;99367.27;251997;1134;115592;-76
